DW4480 Weather Reports


time (UTC)temp
F
wind
direction
speed
knots
gust
knots
rain 1hr
in
rain 24hr
in
rain mn
in
humidity
%
barometer
mb
20200531064549 56 285 0.0 0.0 0.00 0.00 0.00 72 1024.7
20200531063017 55 130 0.0 0.0 0.00 0.00 0.00 80 1024.5
20200531061521 54 189 0.0 0.0 0.00 0.00 0.00 89 1024.5
20200531060012 52 298 0.0 0.0 0.00 0.00 0.00 91 1024.5
20200531054507 51 298 0.0 0.0 0.00 0.00 0.00 92 1024.3
20200531053010 50 298 0.0 0.0 0.00 0.00 0.00 93 1024.2
20200531051759 49 298 0.0 0.0 0.00 0.00 0.00 93 1024.2
20200531050244 48 298 0.0 0.0 0.00 0.00 0.00 93 1024.1
20200531044746 48 298 0.0 0.0 0.00 0.00 0.00 93 1024.0
20200531043042 47 298 0.0 0.0 0.00 0.00 0.00 92 1023.9
20200531041543 46 298 0.0 0.0 0.00 0.00 0.00 91 1023.9
20200531040028 46 298 0.0 0.0 0.00 0.00 0.00 91 1023.9
20200531034538 46 298 0.0 0.0 0.00 0.00 0.00 91 1023.7
20200531033024 46 298 0.0 0.0 0.00 0.00 0.00 90 1023.7
20200531031538 46 298 0.0 0.0 0.00 0.00 0.00 90 1023.7
20200531030020 47 298 0.0 0.0 0.00 0.00 0.00 90 1023.7
20200531024511 47 298 0.0 0.0 0.00 0.00 0.00 90 1023.6
20200531023026 47 298 0.0 0.0 0.00 0.00 0.00 89 1023.5
20200531021506 47 298 0.0 0.0 0.00 0.00 0.00 88 1023.6
20200531020005 47 298 0.0 0.0 0.00 0.00 0.00 87 1023.6
20200531014524 48 298 0.0 0.0 0.00 0.00 0.00 87 1023.7
20200531013135 48 298 0.0 0.0 0.00 0.00 0.00 87 1023.7
20200531013001 48 298 0.0 0.0 0.00 0.00 0.00 86 1023.7
20200531011652 48 298 0.0 0.0 0.00 0.00 0.00 86 1023.7
20200531010205 49 298 0.0 0.0 0.00 0.00 0.00 85 1023.7
20200531004633 49 298 0.0 0.0 0.00 0.00 0.00 84 1023.7
20200531003135 49 298 0.0 0.0 0.00 0.00 0.00 83 1023.7
20200531001626 50 298 0.0 0.0 0.00 0.00 0.00 82 1023.6
20200531000122 50 298 0.0 0.0 0.00 0.00 0.00 81 1023.7
20200530234639 50 298 0.0 0.0 0.00 0.00 0.00 79 1023.8
20200530233120 51 298 0.0 0.0 0.00 0.00 0.00 77 1023.6
20200530230132 52 298 0.0 0.0 0.00 0.00 0.00 74 1023.6
20200530224604 52 298 0.0 0.0 0.00 0.00 0.00 73 1023.6
20200530223233 52 298 0.0 0.0 0.00 0.00 0.00 72 1023.6
20200530221623 53 298 0.0 0.0 0.00 0.00 0.00 71 1023.6
20200530220109 53 298 0.0 0.0 0.00 0.00 0.00 70 1023.6
20200530214601 54 298 0.0 0.0 0.00 0.00 0.00 70 1023.6
20200530213052 55 298 0.0 0.0 0.00 0.00 0.00 70 1023.5
20200530211613 56 298 0.0 0.0 0.00 0.00 0.00 71 1023.4
20200530210048 57 284 0.0 0.0 0.00 0.00 0.00 70 1023.5
20200530204649 57 360 0.0 0.0 0.00 0.00 0.00 70 1023.5
20200530203037 58 27 0.0 0.0 0.00 0.00 0.00 69 1023.3
20200530201553 59 27 0.0 0.0 0.00 0.00 0.00 67 1023.4
20200530200136 60 38 0.0 2.6 0.00 0.00 0.00 66 1023.2
20200530194603 61 42 0.0 0.0 0.00 0.00 0.00 66 1023.0
20200530193109 62 84 0.0 0.9 0.00 0.00 0.00 64 1022.9
20200530191600 63 78 0.0 0.9 0.00 0.00 0.00 62 1022.6
20200530190114 64 117 0.0 0.0 0.00 0.00 0.00 60 1022.5
20200530184554 65 98 0.0 0.9 0.00 0.00 0.00 58 1022.5
20200530183040 66 267 0.0 7.8 0.00 0.00 0.00 57 1022.4
20200530181552 67 180 0.0 3.5 0.00 0.00 0.00 56 1022.4
20200530180057 67 88 0.0 7.0 0.00 0.00 0.00 57 1022.5
20200530174546 66 13 0.9 10.4 0.00 0.00 0.00 59 1022.4
20200530173030 65 5 5.2 12.2 0.00 0.00 0.00 60 1022.4
20200530171557 65 13 9.6 13.9 0.00 0.00 0.00 61 1022.5
20200530170028 65 33 6.1 16.5 0.00 0.00 0.00 61 1022.5
20200530164542 67 22 2.6 17.4 0.00 0.00 0.00 56 1022.5
20200530163030 68 30 7.0 13.0 0.00 0.00 0.00 52 1022.5
20200530161519 68 355 2.6 13.0 0.00 0.00 0.00 50 1022.7
20200530160028 68 29 10.4 15.6 0.00 0.00 0.00 50 1022.7
20200530154529 68 34 8.7 16.5 0.00 0.00 0.00 46 1022.8
20200530153028 71 14 4.3 13.9 0.00 0.00 0.00 45 1022.9
20200530151551 71 34 0.9 8.7 0.00 0.00 0.00 45 1023.0
20200530150017 71 65 0.0 1.7 0.00 0.00 0.00 43 1023.2
20200530144522 70 51 3.5 10.4 0.00 0.00 0.00 42 1023.1
20200530143014 71 344 2.6 10.4 0.00 0.00 0.00 41 1023.2
20200530141513 72 270 0.0 4.3 0.00 0.00 0.00 42 1023.3
20200530140012 71 48 0.0 4.3 0.00 0.00 0.00 42 1023.3
20200530134511 72 360 0.9 7.8 0.00 0.00 0.00 41 1023.2
20200530133025 72 22 6.1 9.6 0.00 0.00 0.00 41 1023.3
20200530131539 72 40 0.0 4.3 0.00 0.00 0.00 40 1023.3
20200530130012 73 15 0.0 4.3 0.00 0.00 0.00 38 1023.4
20200530124514 72 355 0.9 5.2 0.00 0.00 0.00 43 1023.7
20200530123011 72 273 2.6 7.0 0.00 0.00 0.00 41 1023.8
20200530121720 71 67 0.9 9.6 0.00 0.00 0.00 44 1023.8
20200530120247 72 49 0.0 8.7 0.00 0.00 0.00 41 1024.0
20200530114628 72 355 0.9 4.3 0.00 0.00 0.00 42 1024.1
20200530113147 70 123 0.0 7.0 0.00 0.00 0.00 43 1024.2
20200530111712 70 49 0.0 0.9 0.00 0.00 0.00 45 1024.2
20200530110118 69 314 0.0 9.6 0.00 0.00 0.00 46 1024.3
20200530104627 70 315 0.0 3.5 0.00 0.00 0.00 43 1024.4
20200530103125 71 343 0.9 7.0 0.00 0.00 0.00 44 1024.5
20200530101608 70 34 0.9 4.3 0.00 0.00 0.00 44 1024.5
20200530100151 70 252 0.9 5.2 0.00 0.00 0.00 48 1024.6
20200530094606 70 15 0.0 7.8 0.00 0.00 0.00 47 1024.8
20200530093057 70 32 1.7 7.8 0.00 0.00 0.00 45 1025.0
20200530090042 69 100 0.9 7.0 0.00 0.00 0.00 45 1025.0
20200530084555 68 217 0.9 3.5 0.00 0.00 0.00 50 1024.9
20200530083032 67 107 0.0 2.6 0.00 0.00 0.00 51 1025.1
20200530081655 66 14 1.7 4.3 0.00 0.00 0.00 52 1025.1
20200530080013 65 322 0.9 2.6 0.00 0.00 0.00 56 1025.3
20200530074515 64 296 0.0 2.6 0.00 0.00 0.00 60 1025.3
20200530073001 63 256 0.0 0.0 0.00 0.00 0.00 64 1025.2
20200530071619 61 320 0.0 3.5 0.00 0.00 0.00 66 1025.2
20200530070248 59 104 0.0 1.7 0.00 0.00 0.00 71 1025.3